createdAt,value
2022-09-26T00:07:52.943Z,9.7
2022-09-26T00:17:53.797Z,9.8
2022-09-26T00:27:54.797Z,9.7
2022-09-26T00:37:55.131Z,9.6
2022-09-26T00:57:56.343Z,9.8
2022-09-26T01:17:57.525Z,9.9
2022-09-26T01:27:58.249Z,9.8
2022-09-26T01:37:59.028Z,9.8
2022-09-26T01:47:59.965Z,9.9
2022-09-26T01:58:00.771Z,10
2022-09-26T02:08:01.054Z,10.1
2022-09-26T02:18:01.288Z,10.1
2022-09-26T02:28:02.034Z,10.1
2022-09-26T02:38:02.390Z,10.1
2022-09-26T02:48:02.870Z,10.1
2022-09-26T02:58:03.812Z,10.1
2022-09-26T03:08:04.852Z,10.2
2022-09-26T03:18:05.374Z,10.3
2022-09-26T03:28:06.097Z,10.4
2022-09-26T03:38:07.608Z,10.5
2022-09-26T03:48:06.859Z,10.6
2022-09-26T03:58:07.618Z,10.6
2022-09-26T04:08:08.162Z,10.7
2022-09-26T04:18:08.604Z,10.7
2022-09-26T04:28:09.145Z,10.7
2022-09-26T04:38:09.872Z,10.7
2022-09-26T04:48:09.992Z,10.8
2022-09-26T04:58:10.904Z,10.9
2022-09-26T05:08:11.590Z,10.9
2022-09-26T05:18:12.298Z,10.9
2022-09-26T05:28:12.606Z,11
2022-09-26T05:38:13.295Z,11
2022-09-26T05:48:13.840Z,11
2022-09-26T05:58:14.804Z,11
2022-09-26T06:08:15.450Z,11.1
2022-09-26T06:18:15.982Z,11.2
2022-09-26T06:28:16.392Z,11.3
2022-09-26T06:38:16.995Z,11.4
2022-09-26T06:48:21.084Z,11.5
2022-09-26T06:58:18.698Z,11.6
2022-09-26T07:08:19.543Z,11.6
2022-09-26T07:18:20.024Z,11.6
2022-09-26T07:28:20.385Z,11.7
2022-09-26T07:38:21.319Z,11.7
2022-09-26T07:48:22.112Z,11.8
2022-09-26T07:58:22.629Z,11.8
2022-09-26T08:08:23.224Z,11.8
2022-09-26T08:18:23.723Z,11.8
2022-09-26T08:28:24.398Z,11.8
2022-09-26T08:38:25.038Z,11.8
2022-09-26T08:48:25.761Z,11.8
2022-09-26T08:58:28.857Z,11.5
2022-09-26T09:08:27.199Z,11.4
2022-09-26T09:18:28.066Z,11.2
2022-09-26T09:28:28.584Z,11
2022-09-26T09:38:28.729Z,10.9
2022-09-26T09:48:29.262Z,11
2022-09-26T09:58:29.525Z,11.1
2022-09-26T10:08:30.262Z,11.2
2022-09-26T10:18:30.850Z,11.2
2022-09-26T10:28:31.440Z,11.1
2022-09-26T10:38:32.059Z,11.1
2022-09-26T10:58:33.259Z,11.4
2022-09-26T10:58:55.168Z,11.4
2022-09-26T11:08:39.396Z,11.5
2022-09-26T11:18:39.564Z,11.8
2022-09-26T11:28:40.286Z,12.2
2022-09-26T11:38:41.009Z,12.5
2022-09-26T11:48:41.904Z,13.1
2022-09-26T11:58:42.238Z,13.1
2022-09-26T12:08:42.894Z,13.1
2022-09-26T12:18:43.335Z,13.2
2022-09-26T12:28:43.734Z,12.9
2022-09-26T12:38:44.110Z,12.7
2022-09-26T12:58:45.560Z,12.8
2022-09-26T13:18:46.708Z,13
2022-09-26T13:29:00.779Z,12.9
2022-09-26T13:38:48.215Z,12.9
2022-09-26T13:58:49.170Z,12.6
2022-09-26T14:08:49.556Z,12.4
2022-09-26T14:18:50.107Z,12.1
2022-09-26T14:28:50.405Z,12
2022-09-26T14:38:50.872Z,11.8
2022-09-26T14:48:51.602Z,11.7
2022-09-26T14:58:51.787Z,11.6
2022-09-26T15:08:51.926Z,11.5
2022-09-26T15:18:52.161Z,11.5
2022-09-26T15:28:52.550Z,11.4
2022-09-26T15:38:53.436Z,11.4
2022-09-26T15:48:53.971Z,11.4
2022-09-26T15:58:54.482Z,11.3
2022-09-26T16:08:54.644Z,11.2
2022-09-26T16:18:55.541Z,11.2
2022-09-26T16:28:56.181Z,11.1
2022-09-26T16:38:56.722Z,11.1
2022-09-26T16:48:57.087Z,11.1
2022-09-26T16:58:57.312Z,11.1
2022-09-26T17:08:57.765Z,11.1
2022-09-26T17:28:58.987Z,11
2022-09-26T17:38:59.983Z,11
2022-09-26T17:49:00.364Z,11
2022-09-26T17:59:01.307Z,10.9
2022-09-26T18:09:01.513Z,10.9
2022-09-26T18:19:10.384Z,10.9
2022-09-26T18:29:02.329Z,10.9
2022-09-26T18:39:03.034Z,10.8
2022-09-26T18:49:03.388Z,10.8
2022-09-26T18:59:03.552Z,10.9
2022-09-26T19:09:04.054Z,10.9
2022-09-26T19:19:04.570Z,11
2022-09-26T19:29:06.865Z,11
2022-09-26T19:39:05.566Z,11
2022-09-26T19:49:06.635Z,11
2022-09-26T19:59:07.358Z,11
2022-09-26T20:19:08.789Z,11
2022-09-26T20:29:09.297Z,11
2022-09-26T20:39:09.806Z,10.9
2022-09-26T20:49:10.113Z,10.9
2022-09-26T21:09:11.487Z,10.9
2022-09-26T22:09:15.301Z,10.8
2022-09-26T22:19:15.652Z,10.8
2022-09-26T22:29:16.525Z,10.8
2022-09-26T22:39:17.524Z,10.9
2022-09-26T22:49:17.687Z,10.8
2022-09-26T22:59:18.023Z,10.8
2022-09-26T23:19:19.862Z,10.4
2022-09-26T23:39:20.521Z,10.2
2022-09-26T23:49:21.513Z,10.1
2022-09-26T23:59:21.653Z,10
